Terminal Aerodrome Forecast
Issued by NWS Louisville, KY

Home | Current Version | Previous Version | Text Only | Print | Product List | Glossary On
Versions: 1 2 3 4 5 6 7 8 9 10 11 12 13 14 15 16 17 18
000
FTUS43 KLMK 161733
TAFLEX
TAF
KLEX 161733Z 1618/1718 33012KT 6SM BR BKN018
     FM162100 34011KT P6SM BKN025
     FM170000 36008KT P6SM SCT030
     FM170300 03004KT P6SM FEW080
     FM171100 09005KT P6SM BKN045
     FM171600 11005KT P6SM OVC020 PROB30 1716/1718 3SM -RASN OVC010=

USA.gov is the U.S. government's official web portal to all federal, state and local government web resources and services.